sensor_id;sensor_type;location;lat;lon;timestamp;temperature;humidity
39219;DHT22;24934;52.752;6.964;2022-10-26T00:02:15;9.00;99.90
39219;DHT22;24934;52.752;6.964;2022-10-26T00:04:41;9.00;99.90
39219;DHT22;24934;52.752;6.964;2022-10-26T00:07:07;9.00;99.90
39219;DHT22;24934;52.752;6.964;2022-10-26T00:09:32;9.00;99.90
39219;DHT22;24934;52.752;6.964;2022-10-26T00:11:58;9.00;99.90
39219;DHT22;24934;52.752;6.964;2022-10-26T00:14:24;9.00;99.90
39219;DHT22;24934;52.752;6.964;2022-10-26T00:16:50;9.00;99.90
39219;DHT22;24934;52.752;6.964;2022-10-26T00:19:15;9.10;99.90
39219;DHT22;24934;52.752;6.964;2022-10-26T00:21:41;9.10;99.90
39219;DHT22;24934;52.752;6.964;2022-10-26T00:24:07;9.10;99.90
39219;DHT22;24934;52.752;6.964;2022-10-26T00:26:32;9.10;99.90
39219;DHT22;24934;52.752;6.964;2022-10-26T00:28:58;9.10;99.90
39219;DHT22;24934;52.752;6.964;2022-10-26T00:31:23;9.00;99.90
39219;DHT22;24934;52.752;6.964;2022-10-26T00:33:53;9.10;99.90
39219;DHT22;24934;52.752;6.964;2022-10-26T00:36:20;9.10;99.90
39219;DHT22;24934;52.752;6.964;2022-10-26T00:38:50;9.10;99.90
39219;DHT22;24934;52.752;6.964;2022-10-26T00:41:18;9.10;99.90
39219;DHT22;24934;52.752;6.964;2022-10-26T00:43:44;9.10;99.90
39219;DHT22;24934;52.752;6.964;2022-10-26T00:46:20;9.10;99.90
39219;DHT22;24934;52.752;6.964;2022-10-26T00:48:57;9.00;99.90
39219;DHT22;24934;52.752;6.964;2022-10-26T00:51:32;9.00;99.90
39219;DHT22;24934;52.752;6.964;2022-10-26T00:54:02;9.00;99.90
39219;DHT22;24934;52.752;6.964;2022-10-26T00:56:29;9.00;99.90
39219;DHT22;24934;52.752;6.964;2022-10-26T00:59:01;9.00;99.90
39219;DHT22;24934;52.752;6.964;2022-10-26T01:01:27;8.90;99.90
39219;DHT22;24934;52.752;6.964;2022-10-26T01:03:53;8.90;99.90
39219;DHT22;24934;52.752;6.964;2022-10-26T01:06:20;8.90;99.90
39219;DHT22;24934;52.752;6.964;2022-10-26T01:08:46;8.80;99.90
39219;DHT22;24934;52.752;6.964;2022-10-26T01:11:13;8.80;99.90
39219;DHT22;24934;52.752;6.964;2022-10-26T01:13:39;8.80;99.90
39219;DHT22;24934;52.752;6.964;2022-10-26T01:16:25;8.70;99.90
39219;DHT22;24934;52.752;6.964;2022-10-26T01:24:45;8.70;99.90
39219;DHT22;24934;52.752;6.964;2022-10-26T01:27:37;8.70;99.90
39219;DHT22;24934;52.752;6.964;2022-10-26T01:30:11;8.70;99.90
39219;DHT22;24934;52.752;6.964;2022-10-26T01:35:51;8.70;99.90
39219;DHT22;24934;52.752;6.964;2022-10-26T01:38:29;8.70;99.90
39219;DHT22;24934;52.752;6.964;2022-10-26T01:43:40;8.60;99.90
39219;DHT22;24934;52.752;6.964;2022-10-26T01:46:08;8.60;99.90
39219;DHT22;24934;52.752;6.964;2022-10-26T01:48:36;8.60;99.90
39219;DHT22;24934;52.752;6.964;2022-10-26T01:51:03;8.60;99.90
39219;DHT22;24934;52.752;6.964;2022-10-26T01:53:29;8.60;99.90
39219;DHT22;24934;52.752;6.964;2022-10-26T01:55:55;8.50;99.90
39219;DHT22;24934;52.752;6.964;2022-10-26T01:58:43;8.60;99.90
39219;DHT22;24934;52.752;6.964;2022-10-26T02:04:53;8.50;99.90
39219;DHT22;24934;52.752;6.964;2022-10-26T02:07:39;8.50;99.90
39219;DHT22;24934;52.752;6.964;2022-10-26T02:10:32;8.50;99.90
39219;DHT22;24934;52.752;6.964;2022-10-26T02:18:54;8.40;99.90
39219;DHT22;24934;52.752;6.964;2022-10-26T02:21:27;8.50;99.90
39219;DHT22;24934;52.752;6.964;2022-10-26T02:23:57;8.50;99.90
39219;DHT22;24934;52.752;6.964;2022-10-26T02:26:26;8.50;99.90
39219;DHT22;24934;52.752;6.964;2022-10-26T02:28:55;8.40;99.90
39219;DHT22;24934;52.752;6.964;2022-10-26T02:31:23;8.40;99.90
39219;DHT22;24934;52.752;6.964;2022-10-26T02:33:50;8.40;99.90
39219;DHT22;24934;52.752;6.964;2022-10-26T02:36:23;8.50;99.90
39219;DHT22;24934;52.752;6.964;2022-10-26T02:38:50;8.50;99.90
39219;DHT22;24934;52.752;6.964;2022-10-26T02:41:17;8.50;99.90
39219;DHT22;24934;52.752;6.964;2022-10-26T02:43:50;8.50;99.90
39219;DHT22;24934;52.752;6.964;2022-10-26T02:46:19;8.60;99.90
39219;DHT22;24934;52.752;6.964;2022-10-26T02:48:45;8.60;99.90
39219;DHT22;24934;52.752;6.964;2022-10-26T02:51:24;8.50;99.90
39219;DHT22;24934;52.752;6.964;2022-10-26T02:53:56;8.50;99.90
39219;DHT22;24934;52.752;6.964;2022-10-26T02:56:34;8.50;99.90
39219;DHT22;24934;52.752;6.964;2022-10-26T02:59:04;8.50;99.90
39219;DHT22;24934;52.752;6.964;2022-10-26T03:01:31;8.60;99.90
39219;DHT22;24934;52.752;6.964;2022-10-26T03:03:58;8.60;99.90
39219;DHT22;24934;52.752;6.964;2022-10-26T03:06:25;8.60;99.90
39219;DHT22;24934;52.752;6.964;2022-10-26T03:08:50;8.60;99.90
39219;DHT22;24934;52.752;6.964;2022-10-26T03:11:16;8.60;99.90
39219;DHT22;24934;52.752;6.964;2022-10-26T03:13:42;8.60;99.90
39219;DHT22;24934;52.752;6.964;2022-10-26T03:16:08;8.60;99.90
39219;DHT22;24934;52.752;6.964;2022-10-26T03:18:34;8.60;99.90
39219;DHT22;24934;52.752;6.964;2022-10-26T03:21:00;8.70;99.90
39219;DHT22;24934;52.752;6.964;2022-10-26T03:23:25;8.70;99.90
39219;DHT22;24934;52.752;6.964;2022-10-26T03:25:55;8.70;99.90
39219;DHT22;24934;52.752;6.964;2022-10-26T03:28:21;8.70;99.90
39219;DHT22;24934;52.752;6.964;2022-10-26T03:30:46;8.70;99.90
39219;DHT22;24934;52.752;6.964;2022-10-26T03:33:12;8.70;99.90
39219;DHT22;24934;52.752;6.964;2022-10-26T03:35:38;8.70;99.90
39219;DHT22;24934;52.752;6.964;2022-10-26T03:38:03;8.70;99.90
39219;DHT22;24934;52.752;6.964;2022-10-26T03:40:29;8.70;99.90
39219;DHT22;24934;52.752;6.964;2022-10-26T03:42:54;8.70;99.90
39219;DHT22;24934;52.752;6.964;2022-10-26T03:45:20;8.70;99.90
39219;DHT22;24934;52.752;6.964;2022-10-26T03:47:46;8.70;99.90
39219;DHT22;24934;52.752;6.964;2022-10-26T03:50:14;8.70;99.90
39219;DHT22;24934;52.752;6.964;2022-10-26T03:52:40;8.70;99.90
39219;DHT22;24934;52.752;6.964;2022-10-26T03:55:07;8.70;99.90
39219;DHT22;24934;52.752;6.964;2022-10-26T03:57:32;8.70;99.90
39219;DHT22;24934;52.752;6.964;2022-10-26T03:59:58;8.70;99.90
39219;DHT22;24934;52.752;6.964;2022-10-26T04:02:24;8.70;99.90
39219;DHT22;24934;52.752;6.964;2022-10-26T04:04:55;8.70;99.90
39219;DHT22;24934;52.752;6.964;2022-10-26T04:07:21;8.70;99.90
39219;DHT22;24934;52.752;6.964;2022-10-26T04:09:46;8.70;99.90
39219;DHT22;24934;52.752;6.964;2022-10-26T04:12:12;8.70;99.90
39219;DHT22;24934;52.752;6.964;2022-10-26T04:14:38;8.70;99.90
39219;DHT22;24934;52.752;6.964;2022-10-26T04:17:03;8.70;99.90
39219;DHT22;24934;52.752;6.964;2022-10-26T04:19:29;8.60;99.90
39219;DHT22;24934;52.752;6.964;2022-10-26T04:21:54;8.50;99.90
39219;DHT22;24934;52.752;6.964;2022-10-26T04:24:21;8.50;99.90
39219;DHT22;24934;52.752;6.964;2022-10-26T04:26:47;8.50;99.90
39219;DHT22;24934;52.752;6.964;2022-10-26T04:29:12;8.50;99.90
39219;DHT22;24934;52.752;6.964;2022-10-26T04:31:38;8.50;99.90
39219;DHT22;24934;52.752;6.964;2022-10-26T04:34:05;8.50;99.90
39219;DHT22;24934;52.752;6.964;2022-10-26T04:36:31;8.50;99.90
39219;DHT22;24934;52.752;6.964;2022-10-26T04:38:56;8.50;99.90
39219;DHT22;24934;52.752;6.964;2022-10-26T04:41:22;8.60;99.90
39219;DHT22;24934;52.752;6.964;2022-10-26T04:43:47;8.70;99.90
39219;DHT22;24934;52.752;6.964;2022-10-26T04:46:13;8.70;99.90
39219;DHT22;24934;52.752;6.964;2022-10-26T04:48:39;8.80;99.90
39219;DHT22;24934;52.752;6.964;2022-10-26T04:51:05;8.90;99.90
39219;DHT22;24934;52.752;6.964;2022-10-26T04:53:30;9.00;99.90
39219;DHT22;24934;52.752;6.964;2022-10-26T04:55:57;9.00;99.90
39219;DHT22;24934;52.752;6.964;2022-10-26T04:58:22;9.10;99.90
39219;DHT22;24934;52.752;6.964;2022-10-26T05:00:48;9.10;99.90
39219;DHT22;24934;52.752;6.964;2022-10-26T05:03:13;9.20;99.90
39219;DHT22;24934;52.752;6.964;2022-10-26T05:05:39;9.20;99.90
39219;DHT22;24934;52.752;6.964;2022-10-26T05:08:05;9.30;99.90
39219;DHT22;24934;52.752;6.964;2022-10-26T05:10:31;9.30;99.90
39219;DHT22;24934;52.752;6.964;2022-10-26T05:12:58;9.40;99.90
39219;DHT22;24934;52.752;6.964;2022-10-26T05:15:25;9.40;99.90
39219;DHT22;24934;52.752;6.964;2022-10-26T05:18:01;9.40;99.90
39219;DHT22;24934;52.752;6.964;2022-10-26T05:20:31;9.40;99.90
39219;DHT22;24934;52.752;6.964;2022-10-26T05:22:58;9.50;99.90
39219;DHT22;24934;52.752;6.964;2022-10-26T05:25:26;9.50;99.90
39219;DHT22;24934;52.752;6.964;2022-10-26T05:27:59;9.40;99.90
39219;DHT22;24934;52.752;6.964;2022-10-26T05:30:26;9.40;99.90
39219;DHT22;24934;52.752;6.964;2022-10-26T05:32:56;9.40;99.90
39219;DHT22;24934;52.752;6.964;2022-10-26T05:35:22;9.40;99.90
39219;DHT22;24934;52.752;6.964;2022-10-26T05:37:48;9.30;99.90
39219;DHT22;24934;52.752;6.964;2022-10-26T05:40:14;9.30;99.90
39219;DHT22;24934;52.752;6.964;2022-10-26T05:42:41;9.30;99.90
39219;DHT22;24934;52.752;6.964;2022-10-26T05:45:07;9.30;99.90
39219;DHT22;24934;52.752;6.964;2022-10-26T05:47:37;9.30;99.90
39219;DHT22;24934;52.752;6.964;2022-10-26T05:50:30;9.30;99.90
39219;DHT22;24934;52.752;6.964;2022-10-26T05:53:05;9.30;99.90
39219;DHT22;24934;52.752;6.964;2022-10-26T05:55:31;9.40;99.90
39219;DHT22;24934;52.752;6.964;2022-10-26T05:57:57;9.40;99.90
39219;DHT22;24934;52.752;6.964;2022-10-26T06:00:24;9.40;99.90
39219;DHT22;24934;52.752;6.964;2022-10-26T06:05:34;9.40;99.90
39219;DHT22;24934;52.752;6.964;2022-10-26T06:08:01;9.50;99.90
39219;DHT22;24934;52.752;6.964;2022-10-26T06:10:27;9.50;99.90
39219;DHT22;24934;52.752;6.964;2022-10-26T06:12:53;9.50;99.90
39219;DHT22;24934;52.752;6.964;2022-10-26T06:15:20;9.50;99.90
39219;DHT22;24934;52.752;6.964;2022-10-26T06:18:01;9.50;99.90
39219;DHT22;24934;52.752;6.964;2022-10-26T06:23:39;9.60;99.90
39219;DHT22;24934;52.752;6.964;2022-10-26T06:26:39;9.60;99.90
39219;DHT22;24934;52.752;6.964;2022-10-26T06:31:45;9.60;99.90
39219;DHT22;24934;52.752;6.964;2022-10-26T06:34:17;9.60;99.90
39219;DHT22;24934;52.752;6.964;2022-10-26T06:36:46;9.60;99.90
39219;DHT22;24934;52.752;6.964;2022-10-26T06:39:13;9.70;99.90
39219;DHT22;24934;52.752;6.964;2022-10-26T06:41:39;9.70;99.90
39219;DHT22;24934;52.752;6.964;2022-10-26T06:44:05;9.70;99.90
39219;DHT22;24934;52.752;6.964;2022-10-26T06:46:35;9.70;99.90
39219;DHT22;24934;52.752;6.964;2022-10-26T06:49:21;9.70;99.90
39219;DHT22;24934;52.752;6.964;2022-10-26T06:51:58;9.80;99.90
39219;DHT22;24934;52.752;6.964;2022-10-26T06:54:52;9.90;99.90
39219;DHT22;24934;52.752;6.964;2022-10-26T06:57:23;9.90;99.90
39219;DHT22;24934;52.752;6.964;2022-10-26T07:00:21;9.90;99.90
39219;DHT22;24934;52.752;6.964;2022-10-26T07:02:48;9.90;99.90
39219;DHT22;24934;52.752;6.964;2022-10-26T07:05:14;9.90;99.90
39219;DHT22;24934;52.752;6.964;2022-10-26T07:07:44;9.90;99.90
39219;DHT22;24934;52.752;6.964;2022-10-26T07:10:11;9.90;99.90
39219;DHT22;24934;52.752;6.964;2022-10-26T07:12:37;10.00;99.90
39219;DHT22;24934;52.752;6.964;2022-10-26T07:15:06;10.00;99.90
39219;DHT22;24934;52.752;6.964;2022-10-26T07:17:46;10.10;99.90
39219;DHT22;24934;52.752;6.964;2022-10-26T07:20:14;10.10;99.90
39219;DHT22;24934;52.752;6.964;2022-10-26T07:22:40;10.20;99.90
39219;DHT22;24934;52.752;6.964;2022-10-26T07:25:07;10.30;99.90
39219;DHT22;24934;52.752;6.964;2022-10-26T07:27:33;10.30;99.90
39219;DHT22;24934;52.752;6.964;2022-10-26T07:29:59;10.50;99.90
39219;DHT22;24934;52.752;6.964;2022-10-26T07:32:24;10.80;99.90
39219;DHT22;24934;52.752;6.964;2022-10-26T07:34:53;11.10;99.90
39219;DHT22;24934;52.752;6.964;2022-10-26T07:37:18;11.60;99.90
39219;DHT22;24934;52.752;6.964;2022-10-26T07:39:47;12.50;99.90
39219;DHT22;24934;52.752;6.964;2022-10-26T07:42:14;13.60;99.90
39219;DHT22;24934;52.752;6.964;2022-10-26T07:44:39;14.70;99.90
39219;DHT22;24934;52.752;6.964;2022-10-26T07:47:05;15.50;99.90
39219;DHT22;24934;52.752;6.964;2022-10-26T07:49:31;16.10;99.90
39219;DHT22;24934;52.752;6.964;2022-10-26T07:51:56;16.50;99.90
39219;DHT22;24934;52.752;6.964;2022-10-26T07:54:22;16.20;99.90
39219;DHT22;24934;52.752;6.964;2022-10-26T07:56:50;15.60;99.90
39219;DHT22;24934;52.752;6.964;2022-10-26T07:59:16;15.10;99.90
39219;DHT22;24934;52.752;6.964;2022-10-26T08:01:43;15.00;99.90
39219;DHT22;24934;52.752;6.964;2022-10-26T08:04:09;14.70;99.90
39219;DHT22;24934;52.752;6.964;2022-10-26T08:06:34;14.60;99.90
39219;DHT22;24934;52.752;6.964;2022-10-26T08:09:00;14.50;99.90
39219;DHT22;24934;52.752;6.964;2022-10-26T08:11:26;14.40;99.90
39219;DHT22;24934;52.752;6.964;2022-10-26T08:13:52;14.50;99.90
39219;DHT22;24934;52.752;6.964;2022-10-26T08:16:18;14.30;99.90
39219;DHT22;24934;52.752;6.964;2022-10-26T08:18:52;14.20;99.90
39219;DHT22;24934;52.752;6.964;2022-10-26T08:21:18;14.10;99.90
39219;DHT22;24934;52.752;6.964;2022-10-26T08:23:43;14.10;99.90
39219;DHT22;24934;52.752;6.964;2022-10-26T08:26:10;13.80;99.90
39219;DHT22;24934;52.752;6.964;2022-10-26T08:28:39;13.60;99.90
39219;DHT22;24934;52.752;6.964;2022-10-26T08:31:05;13.50;99.90
39219;DHT22;24934;52.752;6.964;2022-10-26T08:33:33;13.30;99.90
39219;DHT22;24934;52.752;6.964;2022-10-26T08:36:04;13.20;99.90
39219;DHT22;24934;52.752;6.964;2022-10-26T08:38:29;13.10;99.90
39219;DHT22;24934;52.752;6.964;2022-10-26T08:41:04;13.10;99.90
39219;DHT22;24934;52.752;6.964;2022-10-26T08:43:52;13.30;99.90
39219;DHT22;24934;52.752;6.964;2022-10-26T08:46:31;13.50;99.90
39219;DHT22;24934;52.752;6.964;2022-10-26T08:49:03;13.70;99.90
39219;DHT22;24934;52.752;6.964;2022-10-26T08:51:40;14.00;99.90
39219;DHT22;24934;52.752;6.964;2022-10-26T08:54:17;14.50;99.90
39219;DHT22;24934;52.752;6.964;2022-10-26T08:56:50;15.30;99.90
39219;DHT22;24934;52.752;6.964;2022-10-26T09:01:51;15.80;99.90
39219;DHT22;24934;52.752;6.964;2022-10-26T09:04:25;15.60;99.90
39219;DHT22;24934;52.752;6.964;2022-10-26T09:09:44;15.70;99.90
39219;DHT22;24934;52.752;6.964;2022-10-26T09:18:20;15.50;99.90
39219;DHT22;24934;52.752;6.964;2022-10-26T09:21:06;15.50;99.90
39219;DHT22;24934;52.752;6.964;2022-10-26T09:29:47;17.40;99.90
39219;DHT22;24934;52.752;6.964;2022-10-26T09:32:19;18.40;99.90
39219;DHT22;24934;52.752;6.964;2022-10-26T09:34:48;19.20;99.90
39219;DHT22;24934;52.752;6.964;2022-10-26T09:37:22;19.90;99.90
39219;DHT22;24934;52.752;6.964;2022-10-26T09:39:57;20.10;99.90
39219;DHT22;24934;52.752;6.964;2022-10-26T09:42:40;20.10;99.90
39219;DHT22;24934;52.752;6.964;2022-10-26T09:45:21;20.50;99.90
39219;DHT22;24934;52.752;6.964;2022-10-26T09:47:50;20.40;99.90
39219;DHT22;24934;52.752;6.964;2022-10-26T09:50:29;20.40;99.90
39219;DHT22;24934;52.752;6.964;2022-10-26T09:52:57;20.70;99.90
39219;DHT22;24934;52.752;6.964;2022-10-26T09:55:23;20.70;99.90
39219;DHT22;24934;52.752;6.964;2022-10-26T09:58:36;20.70;99.90
39219;DHT22;24934;52.752;6.964;2022-10-26T10:00:44;20.30;99.90
39219;DHT22;24934;52.752;6.964;2022-10-26T10:03:40;20.60;99.90
39219;DHT22;24934;52.752;6.964;2022-10-26T10:06:18;20.50;99.90
39219;DHT22;24934;52.752;6.964;2022-10-26T10:12:01;21.00;99.90
39219;DHT22;24934;52.752;6.964;2022-10-26T10:14:30;21.00;99.90
39219;DHT22;24934;52.752;6.964;2022-10-26T10:19:26;20.70;99.90
39219;DHT22;24934;52.752;6.964;2022-10-26T10:21:58;20.80;99.90
39219;DHT22;24934;52.752;6.964;2022-10-26T10:24:30;21.10;99.90
39219;DHT22;24934;52.752;6.964;2022-10-26T10:27:03;21.20;99.90
39219;DHT22;24934;52.752;6.964;2022-10-26T10:29:39;21.20;99.90
39219;DHT22;24934;52.752;6.964;2022-10-26T10:32:11;21.10;99.90
39219;DHT22;24934;52.752;6.964;2022-10-26T10:34:38;21.30;99.90
39219;DHT22;24934;52.752;6.964;2022-10-26T10:37:04;21.30;99.90
39219;DHT22;24934;52.752;6.964;2022-10-26T10:39:40;21.20;99.90
39219;DHT22;24934;52.752;6.964;2022-10-26T10:42:22;21.00;99.90
39219;DHT22;24934;52.752;6.964;2022-10-26T10:44:53;20.50;99.90
39219;DHT22;24934;52.752;6.964;2022-10-26T10:47:34;20.50;99.90
39219;DHT22;24934;52.752;6.964;2022-10-26T10:50:14;20.40;99.90
39219;DHT22;24934;52.752;6.964;2022-10-26T10:52:41;20.40;99.90
39219;DHT22;24934;52.752;6.964;2022-10-26T10:57:59;20.00;99.90
39219;DHT22;24934;52.752;6.964;2022-10-26T11:00:32;19.90;99.90
39219;DHT22;24934;52.752;6.964;2022-10-26T11:11:57;20.80;99.90
39219;DHT22;24934;52.752;6.964;2022-10-26T11:14:25;21.00;99.90
39219;DHT22;24934;52.752;6.964;2022-10-26T11:20:25;20.70;99.90
39219;DHT22;24934;52.752;6.964;2022-10-26T11:22:25;20.60;99.90
39219;DHT22;24934;52.752;6.964;2022-10-26T11:24:59;20.40;99.90
39219;DHT22;24934;52.752;6.964;2022-10-26T11:27:46;20.50;99.90
39219;DHT22;24934;52.752;6.964;2022-10-26T11:30:18;20.60;99.90
39219;DHT22;24934;52.752;6.964;2022-10-26T11:33:09;20.80;99.90
39219;DHT22;24934;52.752;6.964;2022-10-26T11:35:45;20.70;99.90
39219;DHT22;24934;52.752;6.964;2022-10-26T11:41:12;20.10;99.90
39219;DHT22;24934;52.752;6.964;2022-10-26T11:43:46;19.90;99.90
39219;DHT22;24934;52.752;6.964;2022-10-26T11:46:31;19.90;99.90
39219;DHT22;24934;52.752;6.964;2022-10-26T11:51:40;20.30;99.90
39219;DHT22;24934;52.752;6.964;2022-10-26T11:54:12;20.30;99.90
39219;DHT22;24934;52.752;6.964;2022-10-26T11:56:47;20.50;99.90
39219;DHT22;24934;52.752;6.964;2022-10-26T11:59:22;20.70;99.90
39219;DHT22;24934;52.752;6.964;2022-10-26T12:01:56;20.90;99.90
39219;DHT22;24934;52.752;6.964;2022-10-26T12:04:26;20.70;99.90
39219;DHT22;24934;52.752;6.964;2022-10-26T12:06:53;20.60;99.90
39219;DHT22;24934;52.752;6.964;2022-10-26T12:09:24;20.70;99.90
39219;DHT22;24934;52.752;6.964;2022-10-26T12:12:37;20.80;99.90
39219;DHT22;24934;52.752;6.964;2022-10-26T12:18:36;21.10;99.90
39219;DHT22;24934;52.752;6.964;2022-10-26T12:21:07;21.00;99.90
39219;DHT22;24934;52.752;6.964;2022-10-26T12:23:36;21.10;99.90
39219;DHT22;24934;52.752;6.964;2022-10-26T12:28:47;21.20;99.90
39219;DHT22;24934;52.752;6.964;2022-10-26T12:34:00;20.70;99.90
39219;DHT22;24934;52.752;6.964;2022-10-26T12:39:39;20.40;99.90
39219;DHT22;24934;52.752;6.964;2022-10-26T12:42:09;20.30;99.90
39219;DHT22;24934;52.752;6.964;2022-10-26T12:52:40;20.50;99.90
39219;DHT22;24934;52.752;6.964;2022-10-26T12:55:31;20.40;99.90
39219;DHT22;24934;52.752;6.964;2022-10-26T13:03:40;20.80;99.90
39219;DHT22;24934;52.752;6.964;2022-10-26T13:09:08;20.90;99.90
39219;DHT22;24934;52.752;6.964;2022-10-26T13:11:43;21.00;99.90
39219;DHT22;24934;52.752;6.964;2022-10-26T13:14:22;20.90;99.90
39219;DHT22;24934;52.752;6.964;2022-10-26T13:16:51;20.90;99.90
39219;DHT22;24934;52.752;6.964;2022-10-26T13:19:44;20.90;99.90
39219;DHT22;24934;52.752;6.964;2022-10-26T13:22:14;20.80;99.90
39219;DHT22;24934;52.752;6.964;2022-10-26T13:24:51;20.80;99.90
39219;DHT22;24934;52.752;6.964;2022-10-26T13:32:34;20.90;99.90
39219;DHT22;24934;52.752;6.964;2022-10-26T13:35:01;20.70;99.90
39219;DHT22;24934;52.752;6.964;2022-10-26T13:37:30;20.40;99.90
39219;DHT22;24934;52.752;6.964;2022-10-26T13:39:58;20.40;99.90
39219;DHT22;24934;52.752;6.964;2022-10-26T13:42:41;20.40;99.90
39219;DHT22;24934;52.752;6.964;2022-10-26T13:45:24;20.80;99.90
39219;DHT22;24934;52.752;6.964;2022-10-26T13:48:01;20.50;99.90
39219;DHT22;24934;52.752;6.964;2022-10-26T13:50:58;20.30;99.90
39219;DHT22;24934;52.752;6.964;2022-10-26T13:53:37;20.30;99.90
39219;DHT22;24934;52.752;6.964;2022-10-26T13:58:56;20.00;99.90
39219;DHT22;24934;52.752;6.964;2022-10-26T14:01:24;19.80;99.90
39219;DHT22;24934;52.752;6.964;2022-10-26T14:03:50;20.00;99.90
39219;DHT22;24934;52.752;6.964;2022-10-26T14:08:57;20.00;99.90
39219;DHT22;24934;52.752;6.964;2022-10-26T14:11:36;20.10;99.90
39219;DHT22;24934;52.752;6.964;2022-10-26T14:14:14;20.20;99.90
39219;DHT22;24934;52.752;6.964;2022-10-26T14:16:41;20.20;99.90
39219;DHT22;24934;52.752;6.964;2022-10-26T14:19:27;20.10;99.90
39219;DHT22;24934;52.752;6.964;2022-10-26T14:21:53;20.30;99.90
39219;DHT22;24934;52.752;6.964;2022-10-26T14:24:26;20.40;99.90
39219;DHT22;24934;52.752;6.964;2022-10-26T14:26:54;20.50;99.90
39219;DHT22;24934;52.752;6.964;2022-10-26T14:29:25;20.40;99.90
39219;DHT22;24934;52.752;6.964;2022-10-26T14:31:51;20.30;99.90
39219;DHT22;24934;52.752;6.964;2022-10-26T14:34:20;20.30;99.90
39219;DHT22;24934;52.752;6.964;2022-10-26T14:39:34;20.20;99.90
39219;DHT22;24934;52.752;6.964;2022-10-26T14:42:24;20.30;99.90
39219;DHT22;24934;52.752;6.964;2022-10-26T14:44:50;20.20;99.90
39219;DHT22;24934;52.752;6.964;2022-10-26T14:47:26;20.00;99.90
39219;DHT22;24934;52.752;6.964;2022-10-26T14:49:52;19.90;99.90
39219;DHT22;24934;52.752;6.964;2022-10-26T14:52:36;19.80;99.90
39219;DHT22;24934;52.752;6.964;2022-10-26T14:55:10;19.50;99.90
39219;DHT22;24934;52.752;6.964;2022-10-26T14:57:39;19.40;99.90
39219;DHT22;24934;52.752;6.964;2022-10-26T15:00:20;19.20;99.90
39219;DHT22;24934;52.752;6.964;2022-10-26T15:02:56;19.00;99.90
39219;DHT22;24934;52.752;6.964;2022-10-26T15:05:28;18.90;99.90
39219;DHT22;24934;52.752;6.964;2022-10-26T15:07:56;18.80;99.90
39219;DHT22;24934;52.752;6.964;2022-10-26T15:15:52;18.40;99.90
39219;DHT22;24934;52.752;6.964;2022-10-26T15:18:30;18.40;99.90
39219;DHT22;24934;52.752;6.964;2022-10-26T15:20:57;18.30;99.90
39219;DHT22;24934;52.752;6.964;2022-10-26T15:23:24;18.20;99.90
39219;DHT22;24934;52.752;6.964;2022-10-26T15:25:57;18.10;99.90
39219;DHT22;24934;52.752;6.964;2022-10-26T15:28:30;17.90;99.90
39219;DHT22;24934;52.752;6.964;2022-10-26T15:31:23;17.90;99.90
39219;DHT22;24934;52.752;6.964;2022-10-26T15:36:25;17.70;99.90
39219;DHT22;24934;52.752;6.964;2022-10-26T15:38:52;17.60;99.90
39219;DHT22;24934;52.752;6.964;2022-10-26T15:41:29;17.50;99.90
39219;DHT22;24934;52.752;6.964;2022-10-26T15:43:58;17.50;99.90
39219;DHT22;24934;52.752;6.964;2022-10-26T15:46:40;17.40;99.90
39219;DHT22;24934;52.752;6.964;2022-10-26T15:49:13;17.30;99.90
39219;DHT22;24934;52.752;6.964;2022-10-26T15:51:39;17.20;99.90
39219;DHT22;24934;52.752;6.964;2022-10-26T15:54:05;17.10;99.90
39219;DHT22;24934;52.752;6.964;2022-10-26T15:56:31;17.00;99.90
39219;DHT22;24934;52.752;6.964;2022-10-26T15:58:57;17.00;99.90
39219;DHT22;24934;52.752;6.964;2022-10-26T16:01:31;16.90;99.90
39219;DHT22;24934;52.752;6.964;2022-10-26T16:04:00;16.80;99.90
39219;DHT22;24934;52.752;6.964;2022-10-26T16:06:29;16.60;99.90
39219;DHT22;24934;52.752;6.964;2022-10-26T16:08:57;16.50;99.90
39219;DHT22;24934;52.752;6.964;2022-10-26T16:11:25;16.50;99.90
39219;DHT22;24934;52.752;6.964;2022-10-26T16:13:50;16.40;99.90
39219;DHT22;24934;52.752;6.964;2022-10-26T16:16:17;16.40;99.90
39219;DHT22;24934;52.752;6.964;2022-10-26T16:18:44;16.30;99.90
39219;DHT22;24934;52.752;6.964;2022-10-26T16:21:14;16.30;99.90
39219;DHT22;24934;52.752;6.964;2022-10-26T16:23:41;16.30;99.90
39219;DHT22;24934;52.752;6.964;2022-10-26T16:26:07;16.30;99.90
39219;DHT22;24934;52.752;6.964;2022-10-26T16:28:33;16.30;99.90
39219;DHT22;24934;52.752;6.964;2022-10-26T16:31:00;16.40;99.90
39219;DHT22;24934;52.752;6.964;2022-10-26T16:33:26;16.40;99.90
39219;DHT22;24934;52.752;6.964;2022-10-26T16:35:59;16.30;99.90
39219;DHT22;24934;52.752;6.964;2022-10-26T16:38:25;16.30;99.90
39219;DHT22;24934;52.752;6.964;2022-10-26T16:41:12;16.20;99.90
39219;DHT22;24934;52.752;6.964;2022-10-26T16:43:40;16.00;99.90
39219;DHT22;24934;52.752;6.964;2022-10-26T16:46:11;15.90;99.90
39219;DHT22;24934;52.752;6.964;2022-10-26T16:48:39;15.80;99.90
39219;DHT22;24934;52.752;6.964;2022-10-26T16:51:10;15.70;99.90
39219;DHT22;24934;52.752;6.964;2022-10-26T16:53:37;15.60;99.90
39219;DHT22;24934;52.752;6.964;2022-10-26T16:56:10;15.60;99.90
39219;DHT22;24934;52.752;6.964;2022-10-26T16:58:36;15.50;99.90
39219;DHT22;24934;52.752;6.964;2022-10-26T17:01:03;15.50;99.90
39219;DHT22;24934;52.752;6.964;2022-10-26T17:03:29;15.50;99.90
39219;DHT22;24934;52.752;6.964;2022-10-26T17:06:02;15.50;99.90
39219;DHT22;24934;52.752;6.964;2022-10-26T17:08:28;15.60;99.90
39219;DHT22;24934;52.752;6.964;2022-10-26T17:11:01;15.60;99.90
39219;DHT22;24934;52.752;6.964;2022-10-26T17:13:27;15.60;99.90
39219;DHT22;24934;52.752;6.964;2022-10-26T17:15:53;15.60;99.90
39219;DHT22;24934;52.752;6.964;2022-10-26T17:18:18;15.70;99.90
39219;DHT22;24934;52.752;6.964;2022-10-26T17:20:50;15.70;99.90
39219;DHT22;24934;52.752;6.964;2022-10-26T17:23:16;15.70;99.90
39219;DHT22;24934;52.752;6.964;2022-10-26T17:25:42;15.70;99.90
39219;DHT22;24934;52.752;6.964;2022-10-26T17:28:07;15.70;99.90
39219;DHT22;24934;52.752;6.964;2022-10-26T17:30:33;15.80;99.90
39219;DHT22;24934;52.752;6.964;2022-10-26T17:33:00;15.80;99.90
39219;DHT22;24934;52.752;6.964;2022-10-26T17:35:26;15.80;99.90
39219;DHT22;24934;52.752;6.964;2022-10-26T17:37:51;15.90;99.90
39219;DHT22;24934;52.752;6.964;2022-10-26T17:40:17;15.80;99.90
39219;DHT22;24934;52.752;6.964;2022-10-26T17:42:43;15.80;99.90
39219;DHT22;24934;52.752;6.964;2022-10-26T17:45:09;15.70;99.90
39219;DHT22;24934;52.752;6.964;2022-10-26T17:47:34;15.50;99.90
39219;DHT22;24934;52.752;6.964;2022-10-26T17:50:00;15.40;99.90
39219;DHT22;24934;52.752;6.964;2022-10-26T17:52:28;15.30;99.90
39219;DHT22;24934;52.752;6.964;2022-10-26T17:54:53;15.30;99.90
39219;DHT22;24934;52.752;6.964;2022-10-26T17:57:19;15.30;99.90
39219;DHT22;24934;52.752;6.964;2022-10-26T17:59:47;15.10;99.90
39219;DHT22;24934;52.752;6.964;2022-10-26T18:02:13;15.00;99.90